»·PEaware :: DLH456 KSFO-KLAX

DLH456 :: KSFO-KLAX

FLIGHT INFORMATION

Flight Status: Arrived
Operator:
Lufthansa
More flights by this operator :: More flights under this callsign
Pilot: Sean R. (2202)
Aircraft: Boeing 747-8
(B748)
More flights by this aircraft type
Origin: KSFO San Francisco Intl
United States
Destination: KLAX Los Angeles Intl
United States
More flights between these airports :: More routes between these airports
Route: SSTIK3 EBAYE DCT AVE SADDE7
File this flight plan on PilotEdge
Remarks:
Altitude:
(Current/Filed)
31,000ft
Speed:
(Current/Filed)
450kts
Departed: 21-Dec-16 09:28 AM
Arrived: 21-Dec-16 10:28 AM
Distance/Time
Traveled:
293nm/0:59
Distance/Time
To Go:
Arrived

Flight Plot

Page will automatically refresh every two minutes.

Flight plan parsing failed; only flown route is shown


Map Options




Map Legend


Flown Route
Filed Route
Departure Airport
Arrival Airport
Navaid (VOR, NDB)
Fix

Horizontal Profiles

Position Reports

Time Latitude Longitude Heading Altitude Ground
Speed
21-Dec-16 08:23 37.618324 -122.394055 88 37ft 0kts
21-Dec-16 08:26 37.618324 -122.394055 88 37ft 0kts
21-Dec-16 08:27 37.618324 -122.394055 88 37ft 0kts
21-Dec-16 08:34 37.618324 -122.394055 88 37ft 0kts
21-Dec-16 08:35 37.618324 -122.394055 88 37ft 0kts
21-Dec-16 08:36 37.618324 -122.394055 88 37ft 0kts
21-Dec-16 08:37 37.618324 -122.394055 88 37ft 0kts
21-Dec-16 08:38 37.618324 -122.394055 88 37ft 0kts
21-Dec-16 08:39 37.618324 -122.394055 88 37ft 0kts
21-Dec-16 08:40 37.618324 -122.394055 88 37ft 0kts
21-Dec-16 08:41 37.618324 -122.394055 88 37ft 0kts
21-Dec-16 08:42 37.618324 -122.394055 88 37ft 0kts
21-Dec-16 08:43 37.618324 -122.394055 88 37ft 0kts
21-Dec-16 08:44 37.618324 -122.394055 88 37ft 0kts
21-Dec-16 08:46 37.618324 -122.394055 88 37ft 0kts
21-Dec-16 08:47 37.618324 -122.394055 88 37ft 0kts
21-Dec-16 08:48 37.618324 -122.394055 88 37ft 0kts
21-Dec-16 08:49 37.618324 -122.394055 88 37ft 0kts
21-Dec-16 08:50 37.618324 -122.394055 88 37ft 0kts
21-Dec-16 08:51 37.618324 -122.394055 88 37ft 0kts
21-Dec-16 08:52 37.618324 -122.394055 88 37ft 0kts
21-Dec-16 08:53 37.618324 -122.394055 88 37ft 0kts
21-Dec-16 08:54 37.618324 -122.394055 88 37ft 0kts
21-Dec-16 08:55 37.618324 -122.394055 88 37ft 0kts
21-Dec-16 08:56 37.618324 -122.394055 88 37ft 0kts
21-Dec-16 08:57 37.618324 -122.394055 88 37ft 0kts
21-Dec-16 08:58 37.618324 -122.394055 88 37ft 0kts
21-Dec-16 08:59 37.618324 -122.394055 88 37ft 0kts
21-Dec-16 09:00 37.618324 -122.394055 88 37ft 0kts
21-Dec-16 09:01 37.618324 -122.394055 88 37ft 0kts
21-Dec-16 09:02 37.618313 -122.394387 74 36ft 0kts
21-Dec-16 09:03 37.617988 -122.394791 14 35ft 0kts
21-Dec-16 09:04 37.617617 -122.394715 326 35ft 0kts
21-Dec-16 09:05 37.617681 -122.394768 327 35ft 0kts
21-Dec-16 09:06 37.617681 -122.394768 327 35ft 0kts
21-Dec-16 09:07 37.617681 -122.394768 327 35ft 0kts
21-Dec-16 09:08 37.617681 -122.394768 327 35ft 0kts
21-Dec-16 09:09 37.617681 -122.394768 327 35ft 0kts
21-Dec-16 09:10 37.617681 -122.394768 327 35ft 0kts
21-Dec-16 09:11 37.618015 -122.395010 334 35ft 14kts
21-Dec-16 09:12 37.619772 -122.394264 64 36ft 18kts
21-Dec-16 09:13 37.621727 -122.391392 27 35ft 11kts
21-Dec-16 09:14 37.622551 -122.390031 69 36ft 4kts
21-Dec-16 09:15 37.619746 -122.382226 117 38ft 30kts
21-Dec-16 09:16 37.615656 -122.380284 206 38ft 22kts
21-Dec-16 09:17 37.609934 -122.384059 207 38ft 0kts
21-Dec-16 09:18 37.608747 -122.384394 123 38ft 2kts
21-Dec-16 09:19 37.608380 -122.383661 121 38ft 13kts
21-Dec-16 09:20 37.628102 -122.370090 23 871ft 181kts
21-Dec-16 09:21 37.672882 -122.353103 10 4592ft 180kts
21-Dec-16 09:22 37.731153 -122.362048 338 6963ft 275kts
21-Dec-16 09:23 37.785637 -122.430561 281 9806ft 300kts
21-Dec-16 09:24 37.749996 -122.518012 228 10144ft 296kts
21-Dec-16 09:25 37.682611 -122.565968 166 11566ft 300kts
21-Dec-16 09:26 37.608592 -122.513632 152 13317ft 333kts
21-Dec-16 09:27 37.517336 -122.478461 164 15737ft 366kts
21-Dec-16 09:28 37.442034 -122.410270 136 19991ft 365kts
21-Dec-16 09:29 37.370774 -122.315046 135 23153ft 394kts
21-Dec-16 09:30 37.295452 -122.212476 136 26373ft 414kts
21-Dec-16 09:31 37.216202 -122.105436 137 29419ft 431kts
21-Dec-16 09:32 37.132965 -121.993753 137 30994ft 463kts
21-Dec-16 09:33 37.042937 -121.873022 137 30975ft 479kts
21-Dec-16 09:34 36.956480 -121.754531 137 30964ft 478kts
21-Dec-16 09:35 36.866185 -121.633568 137 30968ft 478kts
21-Dec-16 09:36 36.775320 -121.513502 137 30995ft 477kts
21-Dec-16 09:37 36.686402 -121.396349 137 31001ft 475kts
21-Dec-16 09:38 36.595836 -121.277249 137 31003ft 476kts
21-Dec-16 09:39 36.507890 -121.162021 137 30997ft 473kts
21-Dec-16 09:40 36.426020 -121.054754 137 30994ft 467kts
21-Dec-16 09:41 36.341170 -120.935819 134 30996ft 462kts
21-Dec-16 09:42 36.259598 -120.816597 134 30991ft 462kts
21-Dec-16 09:43 36.176958 -120.696417 135 30990ft 462kts
21-Dec-16 09:44 36.093559 -120.577996 135 30991ft 462kts
21-Dec-16 09:45 36.011456 -120.462059 135 30991ft 462kts
21-Dec-16 09:46 35.927222 -120.343176 135 31007ft 462kts
21-Dec-16 09:47 35.842203 -120.225581 137 30996ft 461kts
21-Dec-16 09:48 35.753103 -120.113086 138 31015ft 460kts
21-Dec-16 09:49 35.663758 -120.000564 138 31039ft 460kts
21-Dec-16 09:50 35.567016 -119.904576 150 31012ft 453kts
21-Dec-16 09:51 35.464248 -119.819302 149 30981ft 454kts
21-Dec-16 09:52 35.363898 -119.733820 149 30991ft 455kts
21-Dec-16 09:53 35.260885 -119.645692 149 30991ft 454kts
21-Dec-16 09:54 35.157670 -119.557301 149 31002ft 454kts
21-Dec-16 09:55 35.054307 -119.469242 149 29195ft 458kts
21-Dec-16 09:56 34.951125 -119.381576 149 26966ft 438kts
21-Dec-16 09:57 34.866789 -119.310190 148 24919ft 443kts
21-Dec-16 09:58 34.773922 -119.231465 148 22294ft 371kts
21-Dec-16 09:59 34.691173 -119.161871 147 19990ft 357kts
21-Dec-16 10:00 34.611246 -119.094743 147 17640ft 347kts
21-Dec-16 10:01 34.537247 -119.032827 146 15245ft 337kts
21-Dec-16 10:02 34.461843 -118.969716 146 12733ft 329kts
21-Dec-16 10:03 34.387861 -118.908279 146 11939ft 329kts
21-Dec-16 10:04 34.312911 -118.862906 162 11921ft 327kts
21-Dec-16 10:05 34.225555 -118.832140 164 11910ft 328kts
21-Dec-16 10:06 34.143860 -118.802906 163 11145ft 325kts
21-Dec-16 10:07 34.064196 -118.773830 145 9740ft 319kts
21-Dec-16 10:08 34.028967 -118.680513 94 8289ft 317kts
21-Dec-16 10:09 34.021570 -118.577965 96 6937ft 310kts
21-Dec-16 10:10 34.013638 -118.492164 96 6906ft 246kts
21-Dec-16 10:11 34.018871 -118.416653 82 6753ft 249kts
21-Dec-16 10:12 34.026304 -118.349312 82 4922ft 253kts
21-Dec-16 10:13 34.034140 -118.274568 82 2903ft 235kts
21-Dec-16 10:14 34.029474 -118.214016 145 2489ft 195kts
21-Dec-16 10:15 33.986688 -118.202178 221 2475ft 175kts
21-Dec-16 10:16 33.957522 -118.246004 231 2509ft 175kts
21-Dec-16 10:17 33.940528 -118.291913 278 2330ft 158kts
21-Dec-16 10:18 33.952131 -118.334786 289 2078ft 151kts
21-Dec-16 10:19 33.954040 -118.383833 262 522ft 153kts
21-Dec-16 10:20 33.950459 -118.417148 247 130ft 19kts
21-Dec-16 10:21 33.947987 -118.421556 233 123ft 14kts
21-Dec-16 10:22 33.946975 -118.421255 87 123ft 14kts
21-Dec-16 10:23 33.947512 -118.414029 137 127ft 9kts

Navigation Log

Ident Type
Flight plan parsing failed, navigation log unavailable